CheckWX is a tool to help pilots better visualize weather data.  It is not intended as a substitute for an official pre-flight weather briefing.

15:52:51 UTC

KJOT METAR
Joliet Regional Airport
Joliet, Illinois, USA
Current

18 mins ago

KJOT 211535Z AUTO 24008KT 10SM CLR M04/M12 A3059 RMK AO2 T10381117
Observed
Feb-21 @ 15:35 UTC
Wind
  • 240° at 8 KTS
Visibility
10 SM
Flight Rules
VFR
Cloud Levels
  • Clear skies
Temperature
-4°C / 25°F
Dewpoint
-12°C / 10°F
Humidity
54%
Altimeter
30.59" Hg
Pressure
1035.92 hPa
Previous

38 mins ago

KJOT 211515Z AUTO 24006KT 10SM CLR M04/M12 RMK AO2 T10451118
Observed
Feb-21 @ 15:15 UTC
Wind
  • 240° at 6 KTS
Visibility
10 SM
Flight Rules
VFR
Cloud Levels
  • Clear skies
Temperature
-5°C / 23°F
Dewpoint
-12°C / 10°F
Humidity
58%
Previous

58 mins ago

KJOT 211455Z AUTO 24005KT 10SM CLR M05/M12 RMK AO2 T10531124
Observed
Feb-21 @ 14:55 UTC
Wind
  • 240° at 5 KTS
Visibility
10 SM
Flight Rules
VFR
Cloud Levels
  • Clear skies
Temperature
-5°C / 23°F
Dewpoint
-12°C / 10°F
Humidity
58%